Time;durP1;ratioP1;P1;durP2;ratioP2;P2;SDS_P1;SDS_P2;PMS_P1;PMS_P2;Temp;Humidity;BMP_temperature;BMP_pressure;BME280_temperature;BME280_humidity;BME280_pressure;Samples;Min_cycle;Max_cycle;Signal;HPM_P1;HPM_P2
2023/01/31 00:01:18;;;;;;;11.82;2.70;;;4.40;99.90;;;;;;5002124;28;20083;-76
2023/01/31 00:03:44;;;;;;;26.27;3.08;;;4.50;99.90;;;;;;5041060;28;20069;-75
2023/01/31 00:06:18;;;;;;;18.10;3.13;;;4.50;99.90;;;;;;5004409;28;20033;-74
2023/01/31 00:08:46;;;;;;;15.57;2.28;;;4.50;99.90;;;;;;5007479;28;20341;-73
2023/01/31 00:11:12;;;;;;;20.23;2.35;;;4.50;99.90;;;;;;5006176;28;20108;-75
2023/01/31 00:13:38;;;;;;;17.48;2.38;;;4.40;99.90;;;;;;5005475;28;20832;-75
2023/01/31 00:16:05;;;;;;;15.57;2.10;;;4.40;99.90;;;;;;5026933;28;20034;-75
2023/01/31 00:18:31;;;;;;;12.05;2.25;;;4.40;99.90;;;;;;5029811;28;20080;-74
2023/01/31 00:20:57;;;;;;;11.57;2.22;;;4.30;99.90;;;;;;5009465;28;20025;-75
2023/01/31 00:23:22;;;;;;;15.25;2.65;;;4.30;99.90;;;;;;5041673;28;20055;-75
2023/01/31 00:25:48;;;;;;;13.10;2.17;;;4.30;99.90;;;;;;5030360;28;20047;-78
2023/01/31 00:28:14;;;;;;;17.38;2.55;;;4.30;99.90;;;;;;5032936;28;20517;-74
2023/01/31 00:30:39;;;;;;;15.85;2.88;;;4.30;99.90;;;;;;5024090;28;20174;-76
2023/01/31 00:33:05;;;;;;;23.40;3.17;;;4.30;99.90;;;;;;5026418;28;20108;-75
2023/01/31 00:35:31;;;;;;;18.77;2.97;;;4.40;99.90;;;;;;5027426;28;20025;-75
2023/01/31 00:37:56;;;;;;;13.77;2.33;;;4.40;99.90;;;;;;5008863;28;20583;-73
2023/01/31 00:40:22;;;;;;;18.48;2.53;;;4.40;99.90;;;;;;5023479;28;20036;-73
2023/01/31 00:42:48;;;;;;;15.70;2.17;;;4.40;99.90;;;;;;5006859;28;20152;-73
2023/01/31 00:45:14;;;;;;;15.73;3.35;;;4.40;99.90;;;;;;5039166;28;20148;-73
2023/01/31 00:47:39;;;;;;;24.00;2.47;;;4.40;99.90;;;;;;5007876;28;20029;-73
2023/01/31 00:50:05;;;;;;;21.35;3.45;;;4.40;99.90;;;;;;5024587;28;20033;-73
2023/01/31 00:52:31;;;;;;;27.17;3.60;;;4.40;99.90;;;;;;5021110;28;20501;-73
2023/01/31 00:54:57;;;;;;;22.45;3.17;;;4.40;99.90;;;;;;5021447;28;20033;-72
2023/01/31 00:57:22;;;;;;;18.38;2.97;;;4.40;99.90;;;;;;5023056;28;20030;-73
2023/01/31 00:59:48;;;;;;;19.70;3.30;;;4.40;99.90;;;;;;5023892;28;20469;-73
2023/01/31 01:02:14;;;;;;;23.95;3.17;;;4.50;99.90;;;;;;5023865;28;20048;-74
2023/01/31 01:04:39;;;;;;;21.27;3.03;;;4.50;99.90;;;;;;5024071;28;20408;-74
2023/01/31 01:07:05;;;;;;;20.92;2.85;;;4.40;99.90;;;;;;5022875;28;20053;-73
2023/01/31 01:09:31;;;;;;;15.70;2.55;;;4.40;99.90;;;;;;5023544;28;20083;-73
2023/01/31 01:11:57;;;;;;;15.70;2.33;;;4.30;99.90;;;;;;5024221;28;20442;-73
2023/01/31 01:14:22;;;;;;;15.52;3.05;;;4.20;99.90;;;;;;5024413;28;20455;-74
2023/01/31 01:16:48;;;;;;;22.95;3.35;;;4.20;99.90;;;;;;5031351;28;20037;-76
2023/01/31 01:19:17;;;;;;;19.02;2.72;;;4.10;99.90;;;;;;5025878;28;20034;-74
2023/01/31 01:21:43;;;;;;;25.17;3.17;;;4.00;99.90;;;;;;5029759;28;20448;-77
2023/01/31 01:24:15;;;;;;;20.20;4.28;;;4.00;99.90;;;;;;5028034;28;20052;-74
2023/01/31 01:26:42;;;;;;;17.52;2.67;;;4.00;99.90;;;;;;5026085;28;20048;-75
2023/01/31 01:29:08;;;;;;;24.38;3.25;;;4.00;99.90;;;;;;5023076;28;20040;-78
2023/01/31 01:31:34;;;;;;;19.70;2.80;;;4.00;99.90;;;;;;4994264;28;20025;-76
2023/01/31 01:34:02;;;;;;;18.17;2.67;;;4.00;99.90;;;;;;5026865;28;20032;-73
2023/01/31 01:36:30;;;;;;;20.15;3.70;;;4.00;99.90;;;;;;5031146;28;20030;-74
2023/01/31 01:38:56;;;;;;;26.25;3.53;;;4.00;99.90;;;;;;5009504;28;20426;-73
2023/01/31 01:41:22;;;;;;;16.58;3.33;;;4.00;99.90;;;;;;5027279;28;20062;-76
2023/01/31 01:43:53;;;;;;;22.88;3.38;;;4.00;99.90;;;;;;5011490;28;20377;-77
2023/01/31 01:46:23;;;;;;;15.98;2.80;;;4.00;99.90;;;;;;5028916;28;20029;-73
2023/01/31 01:48:53;;;;;;;22.30;3.05;;;4.00;99.90;;;;;;5028332;28;20029;-74
2023/01/31 01:51:20;;;;;;;22.10;3.40;;;4.00;99.90;;;;;;5008860;28;20323;-73
2023/01/31 01:53:50;;;;;;;18.05;2.75;;;4.10;99.90;;;;;;5007186;28;20028;-74
2023/01/31 01:56:21;;;;;;;19.13;2.50;;;4.00;99.90;;;;;;5027138;28;20497;-74
2023/01/31 01:58:55;;;;;;;;;;;4.00;99.90;;;;;;5028087;28;20307;-75
2023/01/31 02:01:23;;;;;;;30.80;5.13;;;4.00;99.90;;;;;;5028907;28;19923;-80
2023/01/31 02:03:51;;;;;;;16.08;2.50;;;4.00;99.90;;;;;;5027952;28;20021;-74
2023/01/31 02:06:17;;;;;;;20.85;2.80;;;4.00;99.90;;;;;;5031512;28;20545;-75
2023/01/31 02:08:43;;;;;;;16.67;2.10;;;4.00;99.90;;;;;;5027902;28;20100;-76
2023/01/31 02:11:14;;;;;;;23.98;2.78;;;4.00;99.90;;;;;;5037668;28;20454;-74
2023/01/31 02:13:41;;;;;;;14.02;2.55;;;4.00;99.90;;;;;;5007468;28;20033;-74
2023/01/31 02:16:07;;;;;;;20.15;2.97;;;4.00;99.90;;;;;;5027937;28;20087;-78
2023/01/31 02:18:33;;;;;;;13.77;2.90;;;4.10;99.90;;;;;;5027258;28;20351;-74
2023/01/31 02:21:23;;;;;;;16.80;2.72;;;4.10;99.90;;;;;;5024871;28;20044;-73
2023/01/31 02:23:52;;;;;;;16.65;2.83;;;4.10;99.90;;;;;;5026512;28;20026;-74
2023/01/31 02:26:56;;;;;;;21.67;3.30;;;4.20;99.90;;;;;;5024688;28;20033;-74
2023/01/31 02:29:49;;;;;;;17.63;3.30;;;4.20;99.90;;;;;;5008900;28;20069;-73
2023/01/31 02:32:21;;;;;;;26.17;3.03;;;4.20;99.90;;;;;;5040680;28;20044;-73
2023/01/31 02:34:58;;;;;;;16.52;2.55;;;4.20;99.90;;;;;;5027547;28;20083;-73
2023/01/31 02:37:31;;;;;;;22.20;3.13;;;4.20;99.90;;;;;;5038669;28;20505;-73
2023/01/31 02:40:03;;;;;;;28.15;3.53;;;4.20;99.90;;;;;;5009169;28;20171;-72
2023/01/31 02:42:45;;;;;;;17.75;2.60;;;4.20;99.90;;;;;;5025407;28;20048;-73
2023/01/31 02:45:35;;;;;;;18.42;2.67;;;4.20;99.90;;;;;;5026271;28;20026;-74
2023/01/31 02:48:16;;;;;;;11.35;2.58;;;4.20;99.90;;;;;;5052034;28;20029;-73
2023/01/31 02:51:04;;;;;;;13.95;2.72;;;4.20;99.90;;;;;;5033309;28;20048;-73
2023/01/31 02:53:34;;;;;;;21.73;3.83;;;4.20;99.90;;;;;;5040021;28;20030;-73
2023/01/31 02:56:16;;;;;;;17.42;2.10;;;4.20;99.90;;;;;;5026417;28;20041;-73
2023/01/31 02:59:04;;;;;;;13.30;2.10;;;4.20;99.90;;;;;;5025053;28;20044;-74
2023/01/31 03:01:36;;;;;;;8.25;1.65;;;4.30;99.90;;;;;;5008444;28;20515;-74
2023/01/31 03:04:05;;;;;;;10.93;1.67;;;4.20;99.90;;;;;;5009882;28;20018;-77
2023/01/31 03:06:33;;;;;;;13.80;2.60;;;4.30;99.90;;;;;;5008309;28;20025;-74
2023/01/31 03:09:23;;;;;;;15.43;1.73;;;4.20;99.90;;;;;;5023436;28;20030;-74
2023/01/31 03:12:17;;;;;;;14.82;2.22;;;4.20;99.90;;;;;;5024078;28;20025;-72
2023/01/31 03:14:49;;;;;;;12.77;2.03;;;4.20;99.90;;;;;;5023019;28;20037;-77
2023/01/31 03:17:33;;;;;;;11.18;1.77;;;4.20;99.90;;;;;;5026001;28;20604;-75
2023/01/31 03:20:36;;;;;;;13.88;1.73;;;4.10;99.90;;;;;;5026994;28;20080;-77
2023/01/31 03:23:15;;;;;;;16.83;2.75;;;4.10;99.90;;;;;;5025349;28;20025;-74
2023/01/31 03:25:42;;;;;;;19.13;2.90;;;4.00;99.90;;;;;;5025860;28;20555;-73
2023/01/31 03:28:14;;;;;;;14.77;2.00;;;4.00;99.90;;;;;;5027321;28;20413;-78
2023/01/31 03:31:51;;;;;;;13.75;2.40;;;4.00;99.90;;;;;;5024021;28;20052;-73
2023/01/31 03:34:17;;;;;;;15.10;2.55;;;4.00;99.90;;;;;;4956379;28;20511;-74
2023/01/31 03:36:59;;;;;;;16.02;2.97;;;3.90;99.90;;;;;;4960199;28;20031;-76
2023/01/31 03:39:36;;;;;;;17.98;3.47;;;3.90;99.90;;;;;;4991625;28;20045;-74
2023/01/31 03:42:12;;;;;;;17.02;3.08;;;3.90;99.90;;;;;;5025115;28;20033;-75
2023/01/31 03:44:44;;;;;;;12.98;2.75;;;3.80;99.90;;;;;;5041764;28;20115;-72
2023/01/31 03:47:34;;;;;;;13.80;2.40;;;3.80;99.90;;;;;;5025078;28;20087;-74
2023/01/31 03:50:07;;;;;;;16.17;2.47;;;3.90;99.90;;;;;;5024032;28;20071;-73
2023/01/31 03:52:40;;;;;;;16.33;3.28;;;3.90;99.90;;;;;;5006845;28;20022;-74
2023/01/31 03:55:17;;;;;;;19.95;2.83;;;3.90;99.90;;;;;;5008310;28;20038;-74
2023/01/31 03:57:48;;;;;;;13.77;3.20;;;4.00;99.90;;;;;;5024862;28;20057;-74
2023/01/31 04:00:17;;;;;;;15.40;3.15;;;4.00;99.90;;;;;;5006076;28;20064;-75
2023/01/31 04:02:45;;;;;;;19.95;3.60;;;4.10;99.90;;;;;;5026950;28;20037;-75
2023/01/31 04:05:20;;;;;;;27.25;3.97;;;4.10;99.90;;;;;;5016463;28;20025;-74
2023/01/31 04:07:46;;;;;;;21.17;2.97;;;4.10;99.90;;;;;;5005025;28;20032;-75
2023/01/31 04:10:17;;;;;;;21.17;3.70;;;4.10;99.90;;;;;;5039310;28;20093;-78
2023/01/31 04:12:43;;;;;;;;;;;4.10;99.90;;;;;;5036518;28;20033;-75
2023/01/31 04:15:10;;;;;;;26.90;2.88;;;4.10;99.90;;;;;;5006102;28;20301;-75
2023/01/31 04:17:35;;;;;;;16.85;2.80;;;4.10;99.90;;;;;;5039371;28;20034;-78
2023/01/31 04:20:01;;;;;;;17.10;2.65;;;4.10;99.90;;;;;;5006122;28;20038;-74
2023/01/31 04:22:27;;;;;;;18.02;2.70;;;4.10;99.90;;;;;;5040526;28;20110;-73
2023/01/31 04:24:53;;;;;;;15.60;3.05;;;4.10;99.90;;;;;;5027550;28;20119;-73
2023/01/31 04:27:19;;;;;;;18.77;3.10;;;4.10;99.90;;;;;;5023589;28;20033;-73
2023/01/31 04:29:44;;;;;;;13.55;2.55;;;4.10;99.90;;;;;;5041578;28;20105;-74
2023/01/31 04:32:10;;;;;;;15.88;2.97;;;4.20;99.90;;;;;;5026170;28;20502;-73
2023/01/31 04:34:36;;;;;;;18.08;2.95;;;4.10;99.90;;;;;;5024381;28;20104;-72
2023/01/31 04:37:01;;;;;;;16.27;2.72;;;4.20;99.90;;;;;;5023553;28;20413;-72
2023/01/31 04:39:27;;;;;;;26.65;3.63;;;4.20;99.90;;;;;;5028134;28;20063;-73
2023/01/31 04:41:53;;;;;;;18.70;3.33;;;4.20;99.90;;;;;;5024462;28;20075;-74
2023/01/31 04:44:18;;;;;;;24.70;4.25;;;4.20;99.90;;;;;;5025447;28;20198;-73
2023/01/31 04:46:45;;;;;;;15.50;3.08;;;4.20;99.90;;;;;;5039003;28;20048;-73
2023/01/31 04:49:12;;;;;;;20.90;3.33;;;4.20;99.90;;;;;;5003880;28;20068;-73
2023/01/31 04:51:38;;;;;;;19.25;3.10;;;4.20;99.90;;;;;;4989909;28;20022;-73
2023/01/31 04:54:04;;;;;;;20.05;2.30;;;4.20;99.90;;;;;;5022640;28;20036;-76
2023/01/31 04:56:32;;;;;;;20.08;2.95;;;4.20;99.90;;;;;;5003569;28;20029;-73
2023/01/31 04:58:58;;;;;;;18.38;2.55;;;4.20;99.90;;;;;;5025534;28;20036;-74
2023/01/31 05:01:24;;;;;;;19.15;2.80;;;4.20;99.90;;;;;;5025096;28;20026;-74
2023/01/31 05:03:51;;;;;;;21.52;3.25;;;4.20;99.90;;;;;;5023996;28;20098;-74
2023/01/31 05:06:17;;;;;;;16.15;2.78;;;4.20;99.90;;;;;;5019017;28;20493;-74
2023/01/31 05:08:43;;;;;;;22.08;2.42;;;4.20;99.90;;;;;;5021522;28;20391;-74
2023/01/31 05:11:09;;;;;;;17.00;2.53;;;4.20;99.90;;;;;;5021716;28;20067;-73
2023/01/31 05:13:38;;;;;;;18.25;3.30;;;4.20;99.90;;;;;;5006858;28;20081;-73
2023/01/31 05:16:10;;;;;;;21.27;2.42;;;4.20;99.90;;;;;;5021714;28;20446;-73
2023/01/31 05:18:36;;;;;;;18.92;2.85;;;4.20;99.90;;;;;;5037119;28;20044;-74
2023/01/31 05:21:03;;;;;;;19.58;2.40;;;4.20;99.90;;;;;;5024245;28;20029;-80
2023/01/31 05:23:30;;;;;;;19.88;2.55;;;4.20;99.90;;;;;;5028611;28;20140;-79
2023/01/31 05:25:56;;;;;;;16.90;2.72;;;4.20;99.90;;;;;;5024322;28;20100;-83
2023/01/31 05:28:22;;;;;;;18.45;3.40;;;4.20;99.90;;;;;;5009490;28;20446;-75
2023/01/31 05:30:48;;;;;;;21.05;2.92;;;4.20;99.90;;;;;;5023785;28;20037;-76
2023/01/31 05:33:15;;;;;;;20.30;2.60;;;4.30;99.90;;;;;;5023616;28;20030;-81
2023/01/31 05:35:42;;;;;;;25.85;2.85;;;4.30;99.90;;;;;;5040255;28;20040;-75
2023/01/31 05:38:08;;;;;;;18.77;3.00;;;4.30;99.90;;;;;;5004114;28;20040;-76
2023/01/31 05:40:34;;;;;;;17.20;2.50;;;4.30;99.90;;;;;;5035836;28;20065;-80
2023/01/31 05:43:00;;;;;;;23.38;3.80;;;4.30;99.90;;;;;;5008234;28;20045;-76
2023/01/31 05:45:26;;;;;;;20.27;3.25;;;4.30;99.90;;;;;;5004127;28;20030;-76
2023/01/31 05:47:53;;;;;;;14.20;3.20;;;4.30;99.90;;;;;;5005922;28;20809;-75
2023/01/31 05:50:20;;;;;;;32.53;3.90;;;4.30;99.90;;;;;;4999434;28;20041;-79
2023/01/31 05:52:53;;;;;;;21.33;2.72;;;4.50;99.90;;;;;;5002896;28;20056;-77
2023/01/31 05:55:20;;;;;;;23.50;3.22;;;4.50;99.90;;;;;;5003788;28;20025;-79
2023/01/31 05:57:45;;;;;;;20.50;3.20;;;4.40;99.90;;;;;;5000421;28;20091;-77
2023/01/31 06:00:13;;;;;;;20.67;2.92;;;4.40;99.90;;;;;;4992723;28;20025;-76
2023/01/31 06:02:41;;;;;;;21.73;3.60;;;4.40;99.90;;;;;;5024700;28;20112;-75
2023/01/31 06:05:11;;;;;;;21.98;3.38;;;4.40;99.90;;;;;;5024232;28;20030;-75
2023/01/31 06:07:38;;;;;;;24.52;3.00;;;4.40;99.90;;;;;;5004197;28;20128;-73
2023/01/31 06:10:05;;;;;;;28.92;3.63;;;4.40;99.90;;;;;;5039641;28;20497;-74
2023/01/31 06:12:31;;;;;;;27.33;3.40;;;4.40;99.90;;;;;;5003805;28;20034;-74
2023/01/31 06:14:56;;;;;;;23.63;3.97;;;4.40;99.90;;;;;;5025339;28;20040;-74
2023/01/31 06:17:23;;;;;;;14.43;2.92;;;4.40;99.90;;;;;;5022010;28;20033;-73
2023/01/31 06:19:50;;;;;;;24.55;3.20;;;4.40;99.90;;;;;;5035086;28;20044;-77
2023/01/31 06:22:16;;;;;;;24.25;3.78;;;4.40;99.90;;;;;;5004763;28;20145;-78
2023/01/31 06:24:42;;;;;;;25.55;3.20;;;4.40;99.90;;;;;;4989699;28;20029;-75
2023/01/31 06:27:08;;;;;;;29.98;3.30;;;4.40;99.90;;;;;;5018533;28;20022;-74
2023/01/31 06:29:34;;;;;;;27.15;3.83;;;4.40;99.90;;;;;;5025032;28;20114;-75
2023/01/31 06:32:00;;;;;;;23.55;3.55;;;4.40;99.90;;;;;;5028820;28;20045;-74
2023/01/31 06:34:25;;;;;;;23.48;2.92;;;4.40;99.90;;;;;;5008261;28;20040;-75
2023/01/31 06:36:52;;;;;;;16.55;3.40;;;4.40;99.90;;;;;;5032967;28;20029;-76
2023/01/31 06:39:17;;;;;;;18.65;3.03;;;4.40;99.90;;;;;;5022207;28;20868;-74
2023/01/31 06:41:43;;;;;;;21.95;3.08;;;4.40;99.90;;;;;;5015178;28;20029;-74
2023/01/31 06:44:09;;;;;;;20.35;3.03;;;4.40;99.90;;;;;;5007360;28;20034;-74
2023/01/31 06:46:35;;;;;;;21.80;3.22;;;4.40;99.90;;;;;;5044018;28;20041;-74
2023/01/31 06:49:01;;;;;;;23.52;3.85;;;4.40;99.90;;;;;;5034366;28;20043;-76
2023/01/31 06:51:28;;;;;;;25.30;4.35;;;4.40;99.90;;;;;;5000001;28;20053;-74
2023/01/31 06:53:55;;;;;;;14.23;3.00;;;4.30;99.90;;;;;;5020423;28;20032;-74
2023/01/31 06:56:21;;;;;;;31.42;3.33;;;4.30;99.90;;;;;;5036312;28;20040;-75
2023/01/31 06:58:47;;;;;;;31.98;4.50;;;4.40;99.90;;;;;;5037517;28;20025;-74
2023/01/31 07:01:13;;;;;;;25.05;3.15;;;4.40;99.90;;;;;;5001073;28;20829;-73
2023/01/31 07:03:39;;;;;;;22.05;3.40;;;4.40;99.90;;;;;;5017425;28;20028;-74
2023/01/31 07:06:06;;;;;;;27.13;3.92;;;4.40;99.90;;;;;;5021214;28;20034;-74
2023/01/31 07:08:34;;;;;;;25.58;3.45;;;4.40;99.90;;;;;;5022740;28;20096;-79
2023/01/31 07:11:03;;;;;;;22.50;3.40;;;4.40;99.90;;;;;;5004843;28;20029;-74
2023/01/31 07:13:29;;;;;;;21.48;2.80;;;4.30;99.90;;;;;;5018206;28;20030;-74
2023/01/31 07:15:55;;;;;;;24.80;3.63;;;4.40;99.90;;;;;;5015432;28;20059;-77
2023/01/31 07:18:22;;;;;;;20.27;3.03;;;4.40;99.90;;;;;;5031975;28;20041;-76
2023/01/31 07:20:49;;;;;;;22.08;3.90;;;4.40;99.90;;;;;;5003288;28;20029;-76
2023/01/31 07:23:14;;;;;;;23.42;3.88;;;4.40;99.90;;;;;;4988344;28;20159;-75
2023/01/31 07:25:42;;;;;;;23.90;3.63;;;4.40;99.90;;;;;;5017716;28;20028;-76
2023/01/31 07:28:11;;;;;;;20.20;3.70;;;4.40;99.90;;;;;;5001797;28;20025;-79
2023/01/31 07:30:37;;;;;;;30.65;3.85;;;4.40;99.90;;;;;;5038840;28;20040;-77
2023/01/31 07:33:02;;;;;;;23.05;3.92;;;4.40;99.90;;;;;;5024968;28;20033;-74
2023/01/31 07:35:29;;;;;;;16.02;3.10;;;4.40;99.90;;;;;;5021629;28;20105;-76
2023/01/31 07:37:55;;;;;;;18.92;3.70;;;4.50;99.90;;;;;;5009296;28;20110;-76
2023/01/31 07:40:22;;;;;;;18.48;4.13;;;4.50;99.90;;;;;;5027268;28;20580;-76
2023/01/31 07:42:49;;;;;;;26.05;4.35;;;4.50;99.90;;;;;;5036598;28;21037;-78
2023/01/31 07:45:17;;;;;;;21.42;4.60;;;4.60;99.90;;;;;;5023795;28;20036;-76
2023/01/31 07:47:43;;;;;;;17.58;4.30;;;4.60;99.90;;;;;;5027732;28;20021;-79
2023/01/31 07:50:10;;;;;;;17.13;3.85;;;4.60;99.90;;;;;;5021580;28;20501;-78
2023/01/31 07:52:36;;;;;;;21.73;4.50;;;4.60;99.90;;;;;;5007641;28;20037;-81
2023/01/31 07:55:01;;;;;;;25.05;5.18;;;4.70;99.90;;;;;;5040277;28;20037;-80
2023/01/31 07:57:32;;;;;;;17.75;4.82;;;4.70;99.90;;;;;;5007044;28;20617;-76
2023/01/31 07:59:59;;;;;;;21.50;5.00;;;4.70;99.90;;;;;;4991759;28;20033;-82
2023/01/31 08:05:16;;;;;;;23.23;5.10;;;4.70;99.90;;;;;;5019538;28;20025;-79
2023/01/31 08:07:42;;;;;;;24.77;5.35;;;4.80;99.90;;;;;;4990733;28;20028;-77
2023/01/31 08:10:08;;;;;;;30.35;5.57;;;4.80;99.90;;;;;;4991206;28;20033;-77
2023/01/31 08:12:34;;;;;;;25.63;6.13;;;4.80;99.90;;;;;;4994184;28;20021;-77
2023/01/31 08:15:00;;;;;;;27.70;5.57;;;4.90;99.90;;;;;;4994131;28;20037;-76
2023/01/31 08:17:25;;;;;;;17.20;4.97;;;4.90;99.90;;;;;;5024544;28;20037;-75
2023/01/31 08:19:51;;;;;;;22.20;5.32;;;4.90;99.90;;;;;;5028440;28;20851;-75
2023/01/31 08:22:17;;;;;;;22.67;5.80;;;4.90;99.90;;;;;;5031360;28;20029;-75
2023/01/31 08:24:42;;;;;;;22.30;5.82;;;4.90;99.90;;;;;;5028393;28;20136;-75
2023/01/31 08:27:08;;;;;;;29.58;5.82;;;4.90;99.90;;;;;;5041697;28;20040;-75
2023/01/31 08:29:35;;;;;;;19.85;5.53;;;4.90;99.90;;;;;;5007170;28;20401;-75
2023/01/31 08:32:01;;;;;;;28.48;7.07;;;4.90;99.90;;;;;;5007500;28;20033;-75
2023/01/31 08:34:27;;;;;;;24.58;6.97;;;5.00;99.90;;;;;;5024267;28;20037;-75
2023/01/31 08:36:53;;;;;;;20.52;5.78;;;5.00;99.90;;;;;;5007045;28;20123;-76
2023/01/31 08:39:20;;;;;;;19.95;5.38;;;5.00;99.90;;;;;;5025216;28;20021;-76
2023/01/31 08:41:47;;;;;;;24.13;6.50;;;5.00;99.90;;;;;;5013198;28;20021;-77
2023/01/31 08:44:13;;;;;;;20.30;6.32;;;5.00;99.90;;;;;;5027954;28;20632;-75
2023/01/31 08:46:39;;;;;;;24.73;5.68;;;5.10;99.90;;;;;;5028679;28;20112;-77
2023/01/31 08:49:06;;;;;;;26.85;6.20;;;5.10;99.90;;;;;;5024683;28;20649;-76
2023/01/31 08:51:33;;;;;;;18.98;5.97;;;5.10;99.90;;;;;;5039509;28;20075;-80
2023/01/31 08:53:59;;;;;;;21.65;5.68;;;5.10;99.90;;;;;;5026744;28;20037;-76
2023/01/31 08:56:26;;;;;;;25.88;6.25;;;5.10;99.90;;;;;;5009543;28;20060;-77
2023/01/31 08:58:53;;;;;;;17.25;4.90;;;5.10;99.90;;;;;;4993552;28;21418;-77
2023/01/31 09:01:20;;;;;;;18.35;5.47;;;5.10;99.90;;;;;;5027982;28;20033;-77
2023/01/31 09:03:49;;;;;;;28.92;6.72;;;5.10;99.90;;;;;;5026843;28;20021;-77
2023/01/31 09:06:20;;;;;;;26.48;5.72;;;5.10;99.90;;;;;;5009830;28;20227;-76
2023/01/31 09:08:46;;;;;;;24.05;5.05;;;5.10;99.90;;;;;;5027071;28;20441;-75
2023/01/31 09:11:16;;;;;;;27.77;5.60;;;5.20;99.90;;;;;;5008786;28;20038;-75
2023/01/31 09:13:42;;;;;;;23.83;5.80;;;5.20;99.90;;;;;;5010640;28;20101;-77
2023/01/31 09:16:09;;;;;;;26.60;6.53;;;5.20;99.90;;;;;;5010236;28;20029;-74
2023/01/31 09:18:37;;;;;;;20.90;5.70;;;5.20;99.90;;;;;;4992904;28;20120;-75
2023/01/31 09:21:08;;;;;;;24.75;5.38;;;5.20;99.90;;;;;;5026843;28;20047;-74
2023/01/31 09:23:34;;;;;;;;;;;5.20;99.90;;;;;;4990143;28;20033;-76
2023/01/31 09:26:00;;;;;;;19.05;5.78;;;5.20;99.90;;;;;;5007442;28;20484;-79
2023/01/31 09:28:26;;;;;;;21.40;5.78;;;5.20;99.90;;;;;;5008944;28;20386;-76
2023/01/31 09:30:52;;;;;;;23.35;5.72;;;5.20;99.90;;;;;;5026637;28;20060;-74
2023/01/31 09:33:19;;;;;;;18.75;5.70;;;5.20;99.90;;;;;;5009391;28;20129;-74
2023/01/31 09:35:59;;;;;;;23.00;6.20;;;5.20;99.90;;;;;;5021904;28;20060;-74
2023/01/31 09:38:25;;;;;;;27.00;5.80;;;5.20;99.90;;;;;;5005226;28;20080;-74
2023/01/31 09:40:52;;;;;;;23.73;6.63;;;5.20;99.90;;;;;;5021144;28;20093;-75
2023/01/31 09:43:22;;;;;;;17.95;6.68;;;5.20;99.90;;;;;;5031600;28;20104;-75
2023/01/31 09:45:50;;;;;;;24.20;7.28;;;5.20;99.90;;;;;;5014301;28;20389;-75
2023/01/31 09:48:22;;;;;;;19.70;6.45;;;5.10;99.90;;;;;;5015336;28;20087;-75
2023/01/31 09:50:54;;;;;;;23.83;8.80;;;5.20;99.90;;;;;;5010743;28;20033;-77
2023/01/31 09:53:23;;;;;;;27.88;6.88;;;5.10;99.90;;;;;;5032280;28;20061;-78
2023/01/31 09:56:01;;;;;;;27.50;6.63;;;5.10;99.90;;;;;;5015676;28;20033;-74
2023/01/31 09:58:45;;;;;;;20.23;7.05;;;5.10;99.90;;;;;;5030319;28;20029;-74
2023/01/31 10:01:22;;;;;;;23.58;6.38;;;5.10;99.90;;;;;;5030286;28;20029;-75
2023/01/31 10:04:21;;;;;;;20.42;7.47;;;5.10;99.90;;;;;;5013191;28;20025;-75
2023/01/31 10:07:23;;;;;;;22.50;6.43;;;5.10;99.90;;;;;;5044204;28;20033;-75
2023/01/31 10:09:52;;;;;;;23.77;7.45;;;5.10;99.90;;;;;;5010357;28;20047;-75
2023/01/31 10:12:39;;;;;;;21.20;7.85;;;5.10;99.90;;;;;;5019496;28;20501;-77
2023/01/31 10:15:14;;;;;;;25.88;6.90;;;5.10;99.90;;;;;;5019165;28;20116;-76
2023/01/31 10:17:45;;;;;;;20.17;7.05;;;5.10;99.90;;;;;;5033669;28;20036;-77
2023/01/31 10:20:17;;;;;;;25.83;8.13;;;5.20;99.90;;;;;;5029670;28;20045;-79
2023/01/31 10:23:02;;;;;;;18.08;7.05;;;5.20;99.90;;;;;;5045943;28;20044;-75
2023/01/31 10:25:46;;;;;;;18.90;7.68;;;5.20;99.90;;;;;;5000058;28;20025;-77
2023/01/31 10:28:18;;;;;;;15.10;7.63;;;5.20;99.90;;;;;;5013109;28;20025;-76
2023/01/31 10:31:16;;;;;;;18.98;7.90;;;5.30;99.90;;;;;;5045358;28;20025;-75
2023/01/31 10:33:55;;;;;;;25.55;8.23;;;5.30;99.90;;;;;;5004402;28;20038;-75
2023/01/31 10:36:39;;;;;;;21.55;7.97;;;5.30;99.90;;;;;;5028506;28;20033;-75
2023/01/31 10:39:47;;;;;;;23.63;8.70;;;5.30;99.90;;;;;;5030393;28;20079;-77
2023/01/31 10:42:35;;;;;;;23.67;10.35;;;5.30;99.90;;;;;;5008514;28;20049;-76
2023/01/31 10:45:07;;;;;;;24.40;8.93;;;5.40;99.90;;;;;;4997389;28;20111;-75
2023/01/31 10:47:44;;;;;;;25.73;8.90;;;5.40;99.90;;;;;;5028379;28;20037;-78
2023/01/31 10:50:29;;;;;;;25.27;7.70;;;5.50;99.90;;;;;;5030961;28;20029;-80
2023/01/31 10:53:20;;;;;;;25.55;8.77;;;5.80;99.90;;;;;;5014167;28;20541;-75
2023/01/31 10:56:31;;;;;;;39.20;22.08;;;5.70;99.90;;;;;;5030006;28;20087;-78
2023/01/31 10:58:59;;;;;;;24.35;10.05;;;6.00;99.90;;;;;;4999819;28;20100;-75
2023/01/31 11:01:24;;;;;;;23.77;9.70;;;5.90;99.90;;;;;;5028416;28;20132;-75
2023/01/31 11:03:53;;;;;;;39.38;15.13;;;5.90;99.90;;;;;;5029515;28;20080;-76
2023/01/31 11:06:20;;;;;;;27.45;13.18;;;5.90;99.90;;;;;;5028756;28;20057;-74
2023/01/31 11:08:53;;;;;;;28.00;10.30;;;5.70;99.90;;;;;;5012482;28;20401;-76
2023/01/31 11:11:21;;;;;;;19.92;8.70;;;5.80;99.90;;;;;;5029402;28;20033;-80
2023/01/31 11:14:05;;;;;;;31.08;10.98;;;5.80;99.90;;;;;;5015311;28;20036;-75
2023/01/31 11:16:35;;;;;;;162.07;50.90;;;5.90;99.90;;;;;;5027465;28;20061;-75
2023/01/31 11:19:13;;;;;;;21.35;8.43;;;5.80;99.90;;;;;;5026335;28;20044;-75
2023/01/31 11:21:39;;;;;;;28.52;13.55;;;5.80;99.90;;;;;;5029817;28;20025;-76
2023/01/31 11:24:15;;;;;;;40.85;15.50;;;5.80;99.90;;;;;;4995476;28;20043;-75
2023/01/31 11:26:50;;;;;;;23.25;9.23;;;6.00;99.90;;;;;;5030085;28;20030;-76
2023/01/31 11:29:29;;;;;;;21.30;9.35;;;6.10;99.90;;;;;;5012745;28;20033;-75
2023/01/31 11:31:57;;;;;;;18.73;7.70;;;6.10;99.90;;;;;;5029546;28;20437;-75
2023/01/31 11:34:32;;;;;;;20.00;6.95;;;6.00;99.90;;;;;;5028347;28;20036;-76
2023/01/31 11:37:24;;;;;;;19.38;7.03;;;6.00;99.90;;;;;;5027922;28;20037;-75
2023/01/31 11:39:57;;;;;;;16.40;6.43;;;6.00;99.90;;;;;;5009249;28;20046;-77
2023/01/31 11:42:24;;;;;;;19.33;6.15;;;5.90;99.90;;;;;;5043647;28;20029;-75
2023/01/31 11:44:59;;;;;;;17.77;6.85;;;6.00;99.90;;;;;;5030536;28;20033;-76
2023/01/31 11:47:36;;;;;;;15.63;5.47;;;5.90;99.90;;;;;;5011107;28;20156;-76
2023/01/31 11:50:02;;;;;;;19.35;6.60;;;5.90;99.90;;;;;;5029150;28;20034;-79
2023/01/31 11:52:31;;;;;;;14.13;6.68;;;5.90;99.90;;;;;;5027417;28;20508;-76
2023/01/31 11:55:06;;;;;;;18.30;6.30;;;5.90;99.90;;;;;;5011806;28;20262;-79
2023/01/31 11:57:34;;;;;;;16.45;6.15;;;5.90;99.90;;;;;;5011793;28;20094;-75
2023/01/31 12:00:04;;;;;;;16.15;6.05;;;5.90;99.90;;;;;;5029994;28;20121;-76
2023/01/31 12:02:40;;;;;;;17.02;6.57;;;5.90;99.90;;;;;;5031342;28;20017;-81
2023/01/31 12:05:10;;;;;;;13.80;5.88;;;5.90;99.90;;;;;;5012791;28;20121;-77
2023/01/31 12:07:49;;;;;;;13.48;5.40;;;5.90;99.90;;;;;;5028923;28;20024;-74
2023/01/31 12:10:35;;;;;;;17.10;5.15;;;5.90;99.90;;;;;;5030522;28;20104;-75
2023/01/31 12:13:11;;;;;;;14.27;5.05;;;5.90;99.90;;;;;;5028881;28;20044;-77
2023/01/31 12:15:47;;;;;;;12.30;4.35;;;5.90;99.90;;;;;;5042843;28;20022;-75
2023/01/31 12:18:13;;;;;;;12.48;5.15;;;5.90;99.90;;;;;;5009500;28;20076;-74
2023/01/31 12:20:49;;;;;;;12.90;4.22;;;6.00;99.90;;;;;;5029328;28;20063;-75
2023/01/31 12:23:24;;;;;;;324.25;162.43;;;6.00;99.90;;;;;;5043081;28;20039;-74
2023/01/31 12:26:12;;;;;;;116.72;68.40;;;6.00;99.90;;;;;;5025957;28;20021;-75
2023/01/31 12:28:58;;;;;;;11.27;5.22;;;6.10;99.90;;;;;;5012550;28;20034;-78
2023/01/31 12:32:02;;;;;;;16.45;4.03;;;6.10;99.90;;;;;;5010030;28;20036;-75
2023/01/31 12:34:52;;;;;;;12.52;4.55;;;6.10;99.90;;;;;;5044423;28;20033;-75
2023/01/31 12:37:37;;;;;;;9.38;3.35;;;6.10;99.90;;;;;;5044553;28;20029;-75
2023/01/31 12:40:32;;;;;;;9.43;3.47;;;6.10;99.90;;;;;;5028338;28;20029;-81
2023/01/31 12:43:08;;;;;;;9.20;2.50;;;6.10;99.90;;;;;;5009379;28;20059;-75
2023/01/31 12:46:08;;;;;;;6.18;2.88;;;6.10;99.90;;;;;;5011618;28;20024;-75
2023/01/31 12:48:48;;;;;;;7.75;2.90;;;6.10;99.90;;;;;;5027080;28;20095;-75
2023/01/31 12:51:49;;;;;;;9.15;2.50;;;6.10;99.90;;;;;;5044411;28;20060;-76
2023/01/31 12:54:32;;;;;;;9.63;2.30;;;6.10;99.90;;;;;;4997965;28;20068;-75
2023/01/31 12:57:16;;;;;;;5.68;2.78;;;6.10;99.90;;;;;;5028789;28;20041;-75
2023/01/31 13:00:02;;;;;;;9.48;2.60;;;6.20;99.90;;;;;;5027134;28;20072;-76
2023/01/31 13:02:34;;;;;;;5.47;1.85;;;6.20;99.90;;;;;;5025754;28;20033;-75
2023/01/31 13:05:23;;;;;;;6.00;1.75;;;6.10;99.90;;;;;;5010380;28;20029;-75
2023/01/31 13:08:04;;;;;;;4.75;2.13;;;6.20;99.90;;;;;;5010590;28;20048;-75
2023/01/31 13:10:37;;;;;;;8.45;2.92;;;6.20;99.90;;;;;;5031647;28;20029;-77
2023/01/31 13:13:10;;;;;;;5.82;1.50;;;6.30;99.90;;;;;;5015075;28;20029;-77